sensor_id;sensor_type;location;lat;lon;timestamp;P1;durP1;ratioP1;P2;durP2;ratioP2
17725;SDS011;8983;53.156;17.960;2022-07-06T00:01:39;5.40;;;3.20;;
17725;SDS011;8983;53.156;17.960;2022-07-06T00:04:08;4.73;;;3.37;;
17725;SDS011;8983;53.156;17.960;2022-07-06T00:06:38;5.67;;;3.53;;
17725;SDS011;8983;53.156;17.960;2022-07-06T00:09:06;3.70;;;3.40;;
17725;SDS011;8983;53.156;17.960;2022-07-06T00:11:35;4.67;;;3.70;;
17725;SDS011;8983;53.156;17.960;2022-07-06T00:14:03;7.57;;;3.50;;
17725;SDS011;8983;53.156;17.960;2022-07-06T00:16:32;4.10;;;3.67;;
17725;SDS011;8983;53.156;17.960;2022-07-06T00:19:00;3.80;;;3.30;;
17725;SDS011;8983;53.156;17.960;2022-07-06T00:21:29;4.43;;;3.43;;
17725;SDS011;8983;53.156;17.960;2022-07-06T00:23:58;4.20;;;3.70;;
17725;SDS011;8983;53.156;17.960;2022-07-06T00:26:27;5.60;;;3.70;;
17725;SDS011;8983;53.156;17.960;2022-07-06T00:28:55;3.47;;;2.93;;
17725;SDS011;8983;53.156;17.960;2022-07-06T00:31:23;4.70;;;3.53;;
17725;SDS011;8983;53.156;17.960;2022-07-06T00:33:51;4.73;;;4.03;;
17725;SDS011;8983;53.156;17.960;2022-07-06T00:36:19;4.60;;;3.70;;
17725;SDS011;8983;53.156;17.960;2022-07-06T00:38:47;4.40;;;3.73;;
17725;SDS011;8983;53.156;17.960;2022-07-06T00:41:17;6.63;;;4.30;;
17725;SDS011;8983;53.156;17.960;2022-07-06T00:43:51;4.23;;;3.77;;
17725;SDS011;8983;53.156;17.960;2022-07-06T00:46:22;5.47;;;3.83;;
17725;SDS011;8983;53.156;17.960;2022-07-06T00:48:55;4.57;;;3.63;;
17725;SDS011;8983;53.156;17.960;2022-07-06T00:51:25;4.83;;;3.80;;
17725;SDS011;8983;53.156;17.960;2022-07-06T00:53:58;6.20;;;3.60;;
17725;SDS011;8983;53.156;17.960;2022-07-06T00:56:29;4.40;;;4.00;;
17725;SDS011;8983;53.156;17.960;2022-07-06T00:58:58;6.60;;;4.23;;
17725;SDS011;8983;53.156;17.960;2022-07-06T01:01:27;5.30;;;3.47;;
17725;SDS011;8983;53.156;17.960;2022-07-06T01:03:56;4.87;;;3.67;;
17725;SDS011;8983;53.156;17.960;2022-07-06T01:06:24;4.20;;;3.77;;
17725;SDS011;8983;53.156;17.960;2022-07-06T01:08:52;6.07;;;3.83;;
17725;SDS011;8983;53.156;17.960;2022-07-06T01:11:21;6.13;;;3.93;;
17725;SDS011;8983;53.156;17.960;2022-07-06T01:13:51;6.20;;;4.03;;
17725;SDS011;8983;53.156;17.960;2022-07-06T01:16:20;4.17;;;3.67;;
17725;SDS011;8983;53.156;17.960;2022-07-06T01:18:48;4.53;;;3.70;;
17725;SDS011;8983;53.156;17.960;2022-07-06T01:21:17;6.20;;;3.80;;
17725;SDS011;8983;53.156;17.960;2022-07-06T01:23:46;4.40;;;3.73;;
17725;SDS011;8983;53.156;17.960;2022-07-06T01:26:15;4.57;;;3.70;;
17725;SDS011;8983;53.156;17.960;2022-07-06T01:28:45;3.80;;;3.50;;
17725;SDS011;8983;53.156;17.960;2022-07-06T01:31:14;5.63;;;3.70;;
17725;SDS011;8983;53.156;17.960;2022-07-06T01:33:43;4.00;;;3.43;;
17725;SDS011;8983;53.156;17.960;2022-07-06T01:36:11;4.43;;;3.80;;
17725;SDS011;8983;53.156;17.960;2022-07-06T01:38:45;3.90;;;3.60;;
17725;SDS011;8983;53.156;17.960;2022-07-06T01:41:14;4.07;;;3.67;;
17725;SDS011;8983;53.156;17.960;2022-07-06T01:43:42;3.87;;;3.47;;
17725;SDS011;8983;53.156;17.960;2022-07-06T01:46:10;4.43;;;3.90;;
17725;SDS011;8983;53.156;17.960;2022-07-06T01:48:39;5.47;;;4.10;;
17725;SDS011;8983;53.156;17.960;2022-07-06T01:51:08;3.83;;;3.30;;
17725;SDS011;8983;53.156;17.960;2022-07-06T01:53:38;6.50;;;3.80;;
17725;SDS011;8983;53.156;17.960;2022-07-06T01:56:08;5.70;;;3.80;;
17725;SDS011;8983;53.156;17.960;2022-07-06T01:58:36;5.10;;;3.33;;
17725;SDS011;8983;53.156;17.960;2022-07-06T02:01:08;3.60;;;3.30;;
17725;SDS011;8983;53.156;17.960;2022-07-06T02:03:37;4.40;;;4.00;;
17725;SDS011;8983;53.156;17.960;2022-07-06T02:06:06;4.70;;;3.90;;
17725;SDS011;8983;53.156;17.960;2022-07-06T02:08:35;4.30;;;3.90;;
17725;SDS011;8983;53.156;17.960;2022-07-06T02:11:04;5.47;;;4.27;;
17725;SDS011;8983;53.156;17.960;2022-07-06T02:13:34;4.70;;;3.90;;
17725;SDS011;8983;53.156;17.960;2022-07-06T02:16:02;4.43;;;3.80;;
17725;SDS011;8983;53.156;17.960;2022-07-06T02:18:31;5.70;;;4.07;;
17725;SDS011;8983;53.156;17.960;2022-07-06T02:20:59;4.97;;;4.23;;
17725;SDS011;8983;53.156;17.960;2022-07-06T02:23:27;5.63;;;4.20;;
17725;SDS011;8983;53.156;17.960;2022-07-06T02:25:56;6.00;;;4.33;;
17725;SDS011;8983;53.156;17.960;2022-07-06T02:28:24;5.07;;;3.73;;
17725;SDS011;8983;53.156;17.960;2022-07-06T02:30:53;6.50;;;4.37;;
17725;SDS011;8983;53.156;17.960;2022-07-06T02:33:21;4.03;;;3.57;;
17725;SDS011;8983;53.156;17.960;2022-07-06T02:35:49;4.93;;;4.13;;
17725;SDS011;8983;53.156;17.960;2022-07-06T02:38:17;4.73;;;4.30;;
17725;SDS011;8983;53.156;17.960;2022-07-06T02:40:46;5.27;;;4.10;;
17725;SDS011;8983;53.156;17.960;2022-07-06T02:43:14;4.97;;;4.10;;
17725;SDS011;8983;53.156;17.960;2022-07-06T02:45:43;5.87;;;4.27;;
17725;SDS011;8983;53.156;17.960;2022-07-06T02:48:12;6.70;;;4.20;;
17725;SDS011;8983;53.156;17.960;2022-07-06T02:50:40;5.67;;;5.00;;
17725;SDS011;8983;53.156;17.960;2022-07-06T02:53:08;5.63;;;4.80;;
17725;SDS011;8983;53.156;17.960;2022-07-06T02:55:36;6.80;;;4.40;;
17725;SDS011;8983;53.156;17.960;2022-07-06T02:58:04;5.30;;;4.53;;
17725;SDS011;8983;53.156;17.960;2022-07-06T03:00:32;6.20;;;4.20;;
17725;SDS011;8983;53.156;17.960;2022-07-06T03:03:00;5.43;;;4.43;;
17725;SDS011;8983;53.156;17.960;2022-07-06T03:05:30;5.97;;;4.27;;
17725;SDS011;8983;53.156;17.960;2022-07-06T03:07:58;7.67;;;4.37;;
17725;SDS011;8983;53.156;17.960;2022-07-06T03:10:26;6.73;;;4.13;;
17725;SDS011;8983;53.156;17.960;2022-07-06T03:12:54;3.97;;;3.67;;
17725;SDS011;8983;53.156;17.960;2022-07-06T03:15:22;5.37;;;3.80;;
17725;SDS011;8983;53.156;17.960;2022-07-06T03:17:50;4.77;;;4.37;;
17725;SDS011;8983;53.156;17.960;2022-07-06T03:20:18;4.67;;;4.00;;
17725;SDS011;8983;53.156;17.960;2022-07-06T03:22:48;6.30;;;4.20;;
17725;SDS011;8983;53.156;17.960;2022-07-06T03:25:16;5.63;;;3.70;;
17725;SDS011;8983;53.156;17.960;2022-07-06T03:27:44;5.27;;;4.30;;
17725;SDS011;8983;53.156;17.960;2022-07-06T03:30:12;4.20;;;3.80;;
17725;SDS011;8983;53.156;17.960;2022-07-06T03:32:41;5.10;;;4.13;;
17725;SDS011;8983;53.156;17.960;2022-07-06T03:35:09;5.80;;;4.37;;
17725;SDS011;8983;53.156;17.960;2022-07-06T03:37:37;5.37;;;4.83;;
17725;SDS011;8983;53.156;17.960;2022-07-06T03:40:07;4.53;;;4.00;;
17725;SDS011;8983;53.156;17.960;2022-07-06T03:42:35;4.80;;;3.93;;
17725;SDS011;8983;53.156;17.960;2022-07-06T03:45:04;4.73;;;4.20;;
17725;SDS011;8983;53.156;17.960;2022-07-06T03:47:33;7.67;;;4.40;;
17725;SDS011;8983;53.156;17.960;2022-07-06T03:50:01;5.90;;;4.00;;
17725;SDS011;8983;53.156;17.960;2022-07-06T03:52:29;6.43;;;4.73;;
17725;SDS011;8983;53.156;17.960;2022-07-06T03:54:57;6.90;;;5.03;;
17725;SDS011;8983;53.156;17.960;2022-07-06T03:57:28;7.20;;;4.33;;
17725;SDS011;8983;53.156;17.960;2022-07-06T03:59:56;5.40;;;4.70;;
17725;SDS011;8983;53.156;17.960;2022-07-06T04:02:24;5.43;;;4.57;;
17725;SDS011;8983;53.156;17.960;2022-07-06T04:04:52;5.30;;;4.37;;
17725;SDS011;8983;53.156;17.960;2022-07-06T04:07:20;5.77;;;4.23;;
17725;SDS011;8983;53.156;17.960;2022-07-06T04:09:48;6.20;;;4.80;;
17725;SDS011;8983;53.156;17.960;2022-07-06T04:12:16;6.50;;;5.03;;
17725;SDS011;8983;53.156;17.960;2022-07-06T04:14:45;6.23;;;5.50;;
17725;SDS011;8983;53.156;17.960;2022-07-06T04:17:14;6.20;;;5.60;;
17725;SDS011;8983;53.156;17.960;2022-07-06T04:19:55;7.17;;;5.27;;
17725;SDS011;8983;53.156;17.960;2022-07-06T04:22:24;6.90;;;5.00;;
17725;SDS011;8983;53.156;17.960;2022-07-06T04:24:52;6.03;;;5.20;;
17725;SDS011;8983;53.156;17.960;2022-07-06T04:27:20;5.57;;;5.07;;
17725;SDS011;8983;53.156;17.960;2022-07-06T04:29:49;6.57;;;4.97;;
17725;SDS011;8983;53.156;17.960;2022-07-06T04:32:17;6.60;;;5.20;;
17725;SDS011;8983;53.156;17.960;2022-07-06T04:34:50;7.93;;;5.20;;
17725;SDS011;8983;53.156;17.960;2022-07-06T04:37:18;6.67;;;4.67;;
17725;SDS011;8983;53.156;17.960;2022-07-06T04:39:46;5.77;;;4.57;;
17725;SDS011;8983;53.156;17.960;2022-07-06T04:42:14;5.60;;;4.90;;
17725;SDS011;8983;53.156;17.960;2022-07-06T04:44:43;6.80;;;4.93;;
17725;SDS011;8983;53.156;17.960;2022-07-06T04:47:13;5.43;;;4.93;;
17725;SDS011;8983;53.156;17.960;2022-07-06T04:49:42;5.20;;;4.70;;
17725;SDS011;8983;53.156;17.960;2022-07-06T04:52:10;5.07;;;4.57;;
17725;SDS011;8983;53.156;17.960;2022-07-06T04:54:38;5.77;;;5.03;;
17725;SDS011;8983;53.156;17.960;2022-07-06T04:57:06;5.33;;;4.60;;
17725;SDS011;8983;53.156;17.960;2022-07-06T04:59:38;5.53;;;4.30;;
17725;SDS011;8983;53.156;17.960;2022-07-06T05:02:06;7.10;;;3.53;;
17725;SDS011;8983;53.156;17.960;2022-07-06T05:04:36;5.23;;;4.33;;
17725;SDS011;8983;53.156;17.960;2022-07-06T05:07:04;5.50;;;4.27;;
17725;SDS011;8983;53.156;17.960;2022-07-06T05:09:32;4.27;;;3.60;;
17725;SDS011;8983;53.156;17.960;2022-07-06T05:12:00;6.70;;;4.00;;
17725;SDS011;8983;53.156;17.960;2022-07-06T05:14:28;6.67;;;3.47;;
17725;SDS011;8983;53.156;17.960;2022-07-06T05:16:56;5.60;;;3.43;;
17725;SDS011;8983;53.156;17.960;2022-07-06T05:19:24;3.93;;;3.53;;
17725;SDS011;8983;53.156;17.960;2022-07-06T05:21:54;6.63;;;3.57;;
17725;SDS011;8983;53.156;17.960;2022-07-06T05:24:22;3.87;;;3.57;;
17725;SDS011;8983;53.156;17.960;2022-07-06T05:26:50;6.77;;;3.43;;
17725;SDS011;8983;53.156;17.960;2022-07-06T05:29:18;5.00;;;3.40;;
17725;SDS011;8983;53.156;17.960;2022-07-06T05:31:46;4.23;;;3.63;;
17725;SDS011;8983;53.156;17.960;2022-07-06T05:34:14;5.53;;;3.83;;
17725;SDS011;8983;53.156;17.960;2022-07-06T05:36:42;4.63;;;3.60;;
17725;SDS011;8983;53.156;17.960;2022-07-06T05:39:11;7.30;;;3.90;;
17725;SDS011;8983;53.156;17.960;2022-07-06T05:41:39;4.90;;;3.60;;
17725;SDS011;8983;53.156;17.960;2022-07-06T05:44:07;3.80;;;3.40;;
17725;SDS011;8983;53.156;17.960;2022-07-06T05:46:35;6.87;;;3.60;;
17725;SDS011;8983;53.156;17.960;2022-07-06T05:49:03;5.90;;;3.03;;
17725;SDS011;8983;53.156;17.960;2022-07-06T05:51:49;4.07;;;3.20;;
17725;SDS011;8983;53.156;17.960;2022-07-06T05:54:18;7.20;;;2.80;;
17725;SDS011;8983;53.156;17.960;2022-07-06T05:56:47;7.20;;;2.90;;
17725;SDS011;8983;53.156;17.960;2022-07-06T05:59:15;5.60;;;2.40;;
17725;SDS011;8983;53.156;17.960;2022-07-06T06:01:43;3.10;;;2.50;;
17725;SDS011;8983;53.156;17.960;2022-07-06T06:04:11;4.70;;;2.87;;
17725;SDS011;8983;53.156;17.960;2022-07-06T06:06:39;3.13;;;1.90;;
17725;SDS011;8983;53.156;17.960;2022-07-06T06:09:07;2.10;;;1.90;;
17725;SDS011;8983;53.156;17.960;2022-07-06T06:11:37;1.93;;;1.80;;
17725;SDS011;8983;53.156;17.960;2022-07-06T06:14:05;2.73;;;1.60;;
17725;SDS011;8983;53.156;17.960;2022-07-06T06:16:33;3.70;;;2.10;;
17725;SDS011;8983;53.156;17.960;2022-07-06T06:19:01;3.10;;;2.00;;
17725;SDS011;8983;53.156;17.960;2022-07-06T06:21:29;2.27;;;1.90;;
17725;SDS011;8983;53.156;17.960;2022-07-06T06:23:57;4.60;;;2.30;;
17725;SDS011;8983;53.156;17.960;2022-07-06T06:26:25;1.77;;;1.67;;
17725;SDS011;8983;53.156;17.960;2022-07-06T06:28:54;2.10;;;1.90;;
17725;SDS011;8983;53.156;17.960;2022-07-06T06:31:22;5.13;;;1.80;;
17725;SDS011;8983;53.156;17.960;2022-07-06T06:33:50;2.77;;;1.87;;
17725;SDS011;8983;53.156;17.960;2022-07-06T06:36:19;4.63;;;2.10;;
17725;SDS011;8983;53.156;17.960;2022-07-06T06:38:47;2.13;;;1.70;;
17725;SDS011;8983;53.156;17.960;2022-07-06T06:41:21;1.67;;;1.57;;
17725;SDS011;8983;53.156;17.960;2022-07-06T06:43:50;3.20;;;1.13;;
17725;SDS011;8983;53.156;17.960;2022-07-06T06:46:19;1.50;;;1.40;;
17725;SDS011;8983;53.156;17.960;2022-07-06T06:48:47;2.87;;;1.47;;
17725;SDS011;8983;53.156;17.960;2022-07-06T06:51:15;0.90;;;0.83;;
17725;SDS011;8983;53.156;17.960;2022-07-06T06:53:43;1.10;;;1.10;;
17725;SDS011;8983;53.156;17.960;2022-07-06T06:56:11;2.40;;;1.27;;
17725;SDS011;8983;53.156;17.960;2022-07-06T06:58:40;1.87;;;1.20;;
17725;SDS011;8983;53.156;17.960;2022-07-06T07:01:29;1.73;;;1.00;;
17725;SDS011;8983;53.156;17.960;2022-07-06T07:03:59;1.47;;;1.30;;
17725;SDS011;8983;53.156;17.960;2022-07-06T07:06:27;2.27;;;1.30;;
17725;SDS011;8983;53.156;17.960;2022-07-06T07:08:55;2.87;;;1.37;;
17725;SDS011;8983;53.156;17.960;2022-07-06T07:11:23;1.23;;;1.10;;
17725;SDS011;8983;53.156;17.960;2022-07-06T07:13:51;2.30;;;1.30;;
17725;SDS011;8983;53.156;17.960;2022-07-06T07:16:19;2.93;;;1.00;;
17725;SDS011;8983;53.156;17.960;2022-07-06T07:18:49;1.23;;;1.10;;
17725;SDS011;8983;53.156;17.960;2022-07-06T07:21:17;1.00;;;0.83;;
17725;SDS011;8983;53.156;17.960;2022-07-06T07:23:45;2.03;;;1.20;;
17725;SDS011;8983;53.156;17.960;2022-07-06T07:26:14;3.47;;;1.27;;
17725;SDS011;8983;53.156;17.960;2022-07-06T07:28:42;2.80;;;1.00;;
17725;SDS011;8983;53.156;17.960;2022-07-06T07:31:11;3.42;;;1.00;;
17725;SDS011;8983;53.156;17.960;2022-07-06T07:33:39;3.40;;;1.00;;
17725;SDS011;8983;53.156;17.960;2022-07-06T07:36:08;2.40;;;1.30;;
17725;SDS011;8983;53.156;17.960;2022-07-06T07:38:36;2.00;;;1.58;;
17725;SDS011;8983;53.156;17.960;2022-07-06T07:41:04;1.35;;;1.23;;
17725;SDS011;8983;53.156;17.960;2022-07-06T07:43:32;4.17;;;1.07;;
17725;SDS011;8983;53.156;17.960;2022-07-06T07:46:00;2.90;;;1.10;;
17725;SDS011;8983;53.156;17.960;2022-07-06T07:48:29;4.20;;;0.90;;
17725;SDS011;8983;53.156;17.960;2022-07-06T07:50:57;1.83;;;1.17;;
17725;SDS011;8983;53.156;17.960;2022-07-06T07:53:26;2.30;;;1.47;;
17725;SDS011;8983;53.156;17.960;2022-07-06T07:55:54;1.40;;;0.90;;
17725;SDS011;8983;53.156;17.960;2022-07-06T07:58:22;2.50;;;0.93;;
17725;SDS011;8983;53.156;17.960;2022-07-06T08:00:51;1.00;;;1.00;;
17725;SDS011;8983;53.156;17.960;2022-07-06T08:03:19;0.67;;;0.67;;
17725;SDS011;8983;53.156;17.960;2022-07-06T08:05:47;1.67;;;0.97;;
17725;SDS011;8983;53.156;17.960;2022-07-06T08:08:15;1.27;;;1.10;;
17725;SDS011;8983;53.156;17.960;2022-07-06T08:10:45;2.20;;;1.00;;
17725;SDS011;8983;53.156;17.960;2022-07-06T08:13:33;0.80;;;0.80;;
17725;SDS011;8983;53.156;17.960;2022-07-06T08:16:01;0.97;;;0.93;;
17725;SDS011;8983;53.156;17.960;2022-07-06T08:18:29;2.10;;;0.80;;
17725;SDS011;8983;53.156;17.960;2022-07-06T08:20:57;1.30;;;1.20;;
17725;SDS011;8983;53.156;17.960;2022-07-06T08:23:46;0.80;;;0.80;;
17725;SDS011;8983;53.156;17.960;2022-07-06T08:26:15;0.90;;;0.90;;
17725;SDS011;8983;53.156;17.960;2022-07-06T08:28:43;0.77;;;0.77;;
17725;SDS011;8983;53.156;17.960;2022-07-06T08:31:12;1.13;;;0.90;;
17725;SDS011;8983;53.156;17.960;2022-07-06T08:34:00;1.13;;;0.80;;
17725;SDS011;8983;53.156;17.960;2022-07-06T08:36:28;1.30;;;0.80;;
17725;SDS011;8983;53.156;17.960;2022-07-06T08:38:56;0.80;;;0.80;;
17725;SDS011;8983;53.156;17.960;2022-07-06T08:41:26;0.80;;;0.80;;
17725;SDS011;8983;53.156;17.960;2022-07-06T08:43:57;1.83;;;0.80;;
17725;SDS011;8983;53.156;17.960;2022-07-06T08:46:25;1.10;;;1.00;;
17725;SDS011;8983;53.156;17.960;2022-07-06T08:48:55;1.93;;;1.20;;
17725;SDS011;8983;53.156;17.960;2022-07-06T08:51:24;3.70;;;1.30;;
17725;SDS011;8983;53.156;17.960;2022-07-06T08:53:56;1.67;;;1.07;;
17725;SDS011;8983;53.156;17.960;2022-07-06T08:56:26;1.20;;;1.10;;
17725;SDS011;8983;53.156;17.960;2022-07-06T08:58:56;2.10;;;0.97;;
17725;SDS011;8983;53.156;17.960;2022-07-06T09:01:24;1.60;;;0.97;;
17725;SDS011;8983;53.156;17.960;2022-07-06T09:03:54;0.80;;;0.80;;
17725;SDS011;8983;53.156;17.960;2022-07-06T09:06:23;3.15;;;1.00;;
17725;SDS011;8983;53.156;17.960;2022-07-06T09:08:53;2.97;;;1.40;;
17725;SDS011;8983;53.156;17.960;2022-07-06T09:11:21;0.80;;;0.80;;
17725;SDS011;8983;53.156;17.960;2022-07-06T09:13:52;1.98;;;1.10;;
17725;SDS011;8983;53.156;17.960;2022-07-06T09:16:24;1.05;;;1.05;;
17725;SDS011;8983;53.156;17.960;2022-07-06T09:19:05;1.63;;;0.93;;
17725;SDS011;8983;53.156;17.960;2022-07-06T09:21:34;1.88;;;1.08;;
17725;SDS011;8983;53.156;17.960;2022-07-06T09:24:05;1.17;;;0.90;;
17725;SDS011;8983;53.156;17.960;2022-07-06T09:26:35;2.58;;;1.00;;
17725;SDS011;8983;53.156;17.960;2022-07-06T09:29:05;1.27;;;1.15;;
17725;SDS011;8983;53.156;17.960;2022-07-06T09:31:34;1.00;;;0.93;;
17725;SDS011;8983;53.156;17.960;2022-07-06T09:34:02;0.80;;;0.80;;
17725;SDS011;8983;53.156;17.960;2022-07-06T09:36:39;0.90;;;0.90;;
17725;SDS011;8983;53.156;17.960;2022-07-06T09:39:19;3.38;;;0.80;;
17725;SDS011;8983;53.156;17.960;2022-07-06T09:41:50;0.98;;;0.98;;
17725;SDS011;8983;53.156;17.960;2022-07-06T09:44:24;2.25;;;1.45;;
17725;SDS011;8983;53.156;17.960;2022-07-06T09:46:55;1.02;;;0.93;;
17725;SDS011;8983;53.156;17.960;2022-07-06T09:49:24;3.92;;;1.10;;
17725;SDS011;8983;53.156;17.960;2022-07-06T09:51:53;1.05;;;1.00;;
17725;SDS011;8983;53.156;17.960;2022-07-06T09:54:23;1.02;;;0.80;;
17725;SDS011;8983;53.156;17.960;2022-07-06T09:56:51;1.02;;;0.98;;
17725;SDS011;8983;53.156;17.960;2022-07-06T09:59:21;0.93;;;0.80;;
17725;SDS011;8983;53.156;17.960;2022-07-06T10:01:53;2.78;;;1.35;;
17725;SDS011;8983;53.156;17.960;2022-07-06T10:04:23;1.30;;;1.00;;
17725;SDS011;8983;53.156;17.960;2022-07-06T10:06:52;1.45;;;1.20;;
17725;SDS011;8983;53.156;17.960;2022-07-06T10:09:24;1.20;;;1.02;;
17725;SDS011;8983;53.156;17.960;2022-07-06T10:11:54;2.85;;;1.05;;
17725;SDS011;8983;53.156;17.960;2022-07-06T10:14:26;2.50;;;1.27;;
17725;SDS011;8983;53.156;17.960;2022-07-06T10:16:56;3.00;;;1.20;;
17725;SDS011;8983;53.156;17.960;2022-07-06T10:19:26;1.33;;;1.10;;
17725;SDS011;8983;53.156;17.960;2022-07-06T10:21:56;1.30;;;0.98;;
17725;SDS011;8983;53.156;17.960;2022-07-06T10:24:27;1.20;;;0.95;;
17725;SDS011;8983;53.156;17.960;2022-07-06T10:26:57;2.00;;;1.10;;
17725;SDS011;8983;53.156;17.960;2022-07-06T10:29:26;1.10;;;1.08;;
17725;SDS011;8983;53.156;17.960;2022-07-06T10:31:55;3.35;;;1.10;;
17725;SDS011;8983;53.156;17.960;2022-07-06T10:34:23;1.13;;;1.10;;
17725;SDS011;8983;53.156;17.960;2022-07-06T10:36:52;1.00;;;1.00;;
17725;SDS011;8983;53.156;17.960;2022-07-06T10:42:41;1.27;;;1.05;;
17725;SDS011;8983;53.156;17.960;2022-07-06T10:45:12;2.22;;;1.52;;
17725;SDS011;8983;53.156;17.960;2022-07-06T10:47:42;1.23;;;1.13;;
17725;SDS011;8983;53.156;17.960;2022-07-06T10:50:11;1.90;;;1.13;;
17725;SDS011;8983;53.156;17.960;2022-07-06T10:52:52;1.58;;;1.00;;
17725;SDS011;8983;53.156;17.960;2022-07-06T10:55:28;3.70;;;1.45;;
17725;SDS011;8983;53.156;17.960;2022-07-06T10:57:57;2.00;;;1.33;;
17725;SDS011;8983;53.156;17.960;2022-07-06T11:00:27;4.60;;;1.10;;
17725;SDS011;8983;53.156;17.960;2022-07-06T11:03:32;1.30;;;1.20;;
17725;SDS011;8983;53.156;17.960;2022-07-06T11:06:02;1.20;;;1.10;;
17725;SDS011;8983;53.156;17.960;2022-07-06T11:08:49;3.47;;;1.10;;
17725;SDS011;8983;53.156;17.960;2022-07-06T11:11:22;1.90;;;1.50;;
17725;SDS011;8983;53.156;17.960;2022-07-06T11:13:55;1.88;;;1.30;;
17725;SDS011;8983;53.156;17.960;2022-07-06T11:16:29;2.42;;;1.13;;
17725;SDS011;8983;53.156;17.960;2022-07-06T11:19:02;1.70;;;0.80;;
17725;SDS011;8983;53.156;17.960;2022-07-06T11:21:32;1.10;;;1.00;;
17725;SDS011;8983;53.156;17.960;2022-07-06T11:24:03;1.58;;;1.10;;
17725;SDS011;8983;53.156;17.960;2022-07-06T11:26:32;1.00;;;0.90;;
17725;SDS011;8983;53.156;17.960;2022-07-06T11:29:06;1.25;;;1.10;;
17725;SDS011;8983;53.156;17.960;2022-07-06T11:31:37;1.40;;;1.30;;
17725;SDS011;8983;53.156;17.960;2022-07-06T11:34:07;1.35;;;1.25;;
17725;SDS011;8983;53.156;17.960;2022-07-06T11:36:36;1.30;;;1.10;;
17725;SDS011;8983;53.156;17.960;2022-07-06T11:39:11;2.72;;;0.98;;
17725;SDS011;8983;53.156;17.960;2022-07-06T11:41:39;2.20;;;1.27;;
17725;SDS011;8983;53.156;17.960;2022-07-06T11:44:15;2.55;;;1.20;;
17725;SDS011;8983;53.156;17.960;2022-07-06T11:46:45;1.25;;;1.10;;
17725;SDS011;8983;53.156;17.960;2022-07-06T11:49:13;1.20;;;1.10;;
17725;SDS011;8983;53.156;17.960;2022-07-06T11:51:42;2.10;;;1.40;;
17725;SDS011;8983;53.156;17.960;2022-07-06T11:54:12;1.02;;;1.00;;
17725;SDS011;8983;53.156;17.960;2022-07-06T11:56:47;1.25;;;1.15;;
17725;SDS011;8983;53.156;17.960;2022-07-06T11:59:16;2.35;;;1.20;;
17725;SDS011;8983;53.156;17.960;2022-07-06T12:01:50;2.47;;;1.30;;
17725;SDS011;8983;53.156;17.960;2022-07-06T12:04:26;2.50;;;1.00;;
17725;SDS011;8983;53.156;17.960;2022-07-06T12:06:54;2.67;;;1.35;;
17725;SDS011;8983;53.156;17.960;2022-07-06T12:09:23;1.23;;;1.15;;
17725;SDS011;8983;53.156;17.960;2022-07-06T12:11:51;2.25;;;1.30;;
17725;SDS011;8983;53.156;17.960;2022-07-06T12:14:20;0.95;;;0.95;;
17725;SDS011;8983;53.156;17.960;2022-07-06T12:16:49;2.53;;;0.90;;
17725;SDS011;8983;53.156;17.960;2022-07-06T12:19:18;0.90;;;0.90;;
17725;SDS011;8983;53.156;17.960;2022-07-06T12:21:49;1.95;;;1.30;;
17725;SDS011;8983;53.156;17.960;2022-07-06T12:24:19;1.02;;;1.02;;
17725;SDS011;8983;53.156;17.960;2022-07-06T12:26:48;0.95;;;0.80;;
17725;SDS011;8983;53.156;17.960;2022-07-06T12:29:17;1.00;;;1.00;;
17725;SDS011;8983;53.156;17.960;2022-07-06T12:31:48;3.65;;;1.40;;
17725;SDS011;8983;53.156;17.960;2022-07-06T12:34:19;2.10;;;1.00;;
17725;SDS011;8983;53.156;17.960;2022-07-06T12:36:48;0.98;;;0.93;;
17725;SDS011;8983;53.156;17.960;2022-07-06T12:39:18;2.15;;;1.17;;
17725;SDS011;8983;53.156;17.960;2022-07-06T12:41:48;0.80;;;0.80;;
17725;SDS011;8983;53.156;17.960;2022-07-06T12:44:18;1.10;;;1.00;;
17725;SDS011;8983;53.156;17.960;2022-07-06T12:46:48;1.15;;;1.02;;
17725;SDS011;8983;53.156;17.960;2022-07-06T12:49:18;1.38;;;0.90;;
17725;SDS011;8983;53.156;17.960;2022-07-06T12:51:49;2.17;;;1.20;;
17725;SDS011;8983;53.156;17.960;2022-07-06T12:54:22;1.88;;;0.90;;
17725;SDS011;8983;53.156;17.960;2022-07-06T12:57:02;1.23;;;0.93;;
17725;SDS011;8983;53.156;17.960;2022-07-06T12:59:35;1.38;;;0.98;;
17725;SDS011;8983;53.156;17.960;2022-07-06T13:02:08;0.82;;;0.82;;
17725;SDS011;8983;53.156;17.960;2022-07-06T13:04:37;1.00;;;1.00;;
17725;SDS011;8983;53.156;17.960;2022-07-06T13:07:05;1.88;;;1.05;;
17725;SDS011;8983;53.156;17.960;2022-07-06T13:09:37;1.88;;;0.85;;
17725;SDS011;8983;53.156;17.960;2022-07-06T13:12:25;1.58;;;0.90;;
17725;SDS011;8983;53.156;17.960;2022-07-06T13:15:03;1.58;;;1.10;;
17725;SDS011;8983;53.156;17.960;2022-07-06T13:17:36;1.13;;;1.05;;
17725;SDS011;8983;53.156;17.960;2022-07-06T13:20:15;4.10;;;1.00;;
17725;SDS011;8983;53.156;17.960;2022-07-06T13:22:44;1.35;;;0.95;;
17725;SDS011;8983;53.156;17.960;2022-07-06T13:25:12;2.55;;;1.30;;
17725;SDS011;8983;53.156;17.960;2022-07-06T13:27:41;1.73;;;1.20;;
17725;SDS011;8983;53.156;17.960;2022-07-06T13:30:10;1.75;;;1.20;;
17725;SDS011;8983;53.156;17.960;2022-07-06T13:32:40;0.95;;;0.95;;
17725;SDS011;8983;53.156;17.960;2022-07-06T13:35:08;0.98;;;0.88;;
17725;SDS011;8983;53.156;17.960;2022-07-06T13:37:36;1.88;;;1.08;;
17725;SDS011;8983;53.156;17.960;2022-07-06T13:40:05;3.42;;;1.23;;
17725;SDS011;8983;53.156;17.960;2022-07-06T13:42:34;1.98;;;1.15;;
17725;SDS011;8983;53.156;17.960;2022-07-06T13:45:02;1.05;;;1.00;;
17725;SDS011;8983;53.156;17.960;2022-07-06T13:47:30;1.33;;;1.17;;
17725;SDS011;8983;53.156;17.960;2022-07-06T13:50:00;1.25;;;1.15;;
17725;SDS011;8983;53.156;17.960;2022-07-06T13:52:28;1.17;;;1.08;;
17725;SDS011;8983;53.156;17.960;2022-07-06T13:54:56;1.42;;;1.20;;
17725;SDS011;8983;53.156;17.960;2022-07-06T13:57:27;1.92;;;0.95;;
17725;SDS011;8983;53.156;17.960;2022-07-06T13:59:55;1.02;;;1.00;;
17725;SDS011;8983;53.156;17.960;2022-07-06T14:02:23;1.63;;;1.00;;
17725;SDS011;8983;53.156;17.960;2022-07-06T14:04:52;1.35;;;1.25;;
17725;SDS011;8983;53.156;17.960;2022-07-06T14:07:21;1.45;;;0.93;;
17725;SDS011;8983;53.156;17.960;2022-07-06T14:09:49;0.82;;;0.65;;
17725;SDS011;8983;53.156;17.960;2022-07-06T14:12:18;1.58;;;0.70;;
17725;SDS011;8983;53.156;17.960;2022-07-06T14:14:48;1.95;;;1.00;;
17725;SDS011;8983;53.156;17.960;2022-07-06T14:17:16;3.25;;;0.68;;
17725;SDS011;8983;53.156;17.960;2022-07-06T14:19:44;0.82;;;0.50;;
17725;SDS011;8983;53.156;17.960;2022-07-06T14:22:12;0.45;;;0.43;;
17725;SDS011;8983;53.156;17.960;2022-07-06T14:24:42;1.00;;;0.70;;
17725;SDS011;8983;53.156;17.960;2022-07-06T14:27:10;0.45;;;0.45;;
17725;SDS011;8983;53.156;17.960;2022-07-06T14:29:38;1.23;;;0.70;;
17725;SDS011;8983;53.156;17.960;2022-07-06T14:32:06;3.05;;;0.88;;
17725;SDS011;8983;53.156;17.960;2022-07-06T14:34:34;2.63;;;0.75;;
17725;SDS011;8983;53.156;17.960;2022-07-06T14:37:03;0.70;;;0.70;;
17725;SDS011;8983;53.156;17.960;2022-07-06T14:39:31;1.08;;;0.57;;
17725;SDS011;8983;53.156;17.960;2022-07-06T14:42:00;0.73;;;0.57;;
17725;SDS011;8983;53.156;17.960;2022-07-06T14:44:28;2.58;;;0.60;;
17725;SDS011;8983;53.156;17.960;2022-07-06T14:46:57;1.65;;;0.50;;
17725;SDS011;8983;53.156;17.960;2022-07-06T14:49:25;0.65;;;0.60;;
17725;SDS011;8983;53.156;17.960;2022-07-06T14:51:53;4.07;;;0.75;;
17725;SDS011;8983;53.156;17.960;2022-07-06T14:54:21;0.43;;;0.40;;
17725;SDS011;8983;53.156;17.960;2022-07-06T14:56:50;0.50;;;0.50;;
17725;SDS011;8983;53.156;17.960;2022-07-06T14:59:19;0.50;;;0.50;;
17725;SDS011;8983;53.156;17.960;2022-07-06T15:01:51;0.95;;;0.60;;
17725;SDS011;8983;53.156;17.960;2022-07-06T15:04:19;1.95;;;1.17;;
17725;SDS011;8983;53.156;17.960;2022-07-06T15:06:47;0.65;;;0.60;;